createdAt,value
2017-11-05T00:04:25.010Z,13.18
2017-11-05T00:09:21.409Z,13.19
2017-11-05T00:14:17.015Z,13.13
2017-11-05T00:19:12.737Z,13.05
2017-11-05T00:24:08.684Z,13.01
2017-11-05T00:29:06.496Z,12.98
2017-11-05T00:34:01.685Z,12.93
2017-11-05T00:38:57.472Z,12.93
2017-11-05T00:43:53.063Z,12.97
2017-11-05T00:48:48.527Z,12.91
2017-11-05T00:53:44.805Z,12.85
2017-11-05T00:58:41.104Z,12.93
2017-11-05T01:03:37.906Z,12.86
2017-11-05T01:08:33.548Z,12.82
2017-11-05T01:13:29.454Z,12.90
2017-11-05T01:18:25.248Z,12.85
2017-11-05T01:23:23.090Z,12.79
2017-11-05T01:28:18.660Z,12.82
2017-11-05T01:33:14.601Z,12.78
2017-11-05T01:38:10.094Z,12.76
2017-11-05T01:43:06.207Z,12.70
2017-11-05T01:48:02.072Z,12.79
2017-11-05T01:52:58.117Z,12.67
2017-11-05T01:57:54.953Z,12.76
2017-11-05T02:02:51.708Z,12.64
2017-11-05T02:07:47.977Z,12.61
2017-11-05T02:12:44.330Z,12.53
2017-11-05T02:17:39.769Z,12.53
2017-11-05T02:22:35.957Z,12.39
2017-11-05T02:27:31.774Z,12.42
2017-11-05T02:32:27.443Z,12.37
2017-11-05T02:37:25.531Z,12.29
2017-11-05T02:42:20.634Z,12.28
2017-11-05T02:47:16.523Z,12.22
2017-11-05T02:52:13.252Z,12.12
2017-11-05T02:57:08.970Z,12.12
2017-11-05T03:02:04.825Z,12.04
2017-11-05T03:07:00.623Z,12.04
2017-11-05T03:11:56.602Z,12.06
2017-11-05T03:16:53.085Z,12.04
2017-11-05T03:21:49.484Z,11.95
2017-11-05T03:26:45.209Z,11.91
2017-11-05T03:31:40.722Z,11.91
2017-11-05T03:36:36.649Z,11.88
2017-11-05T03:41:33.768Z,11.83
2017-11-05T03:46:29.289Z,11.80
2017-11-05T03:51:25.129Z,11.83
2017-11-05T03:56:21.193Z,11.83
2017-11-05T04:01:18.335Z,11.78
2017-11-05T04:06:14.835Z,11.77
2017-11-05T04:11:10.650Z,11.83
2017-11-05T04:16:08.316Z,11.86
2017-11-05T04:21:04.808Z,11.80
2017-11-05T04:26:01.849Z,11.66
2017-11-05T04:30:58.038Z,11.65
2017-11-05T04:35:53.654Z,11.62
2017-11-05T04:40:50.589Z,11.68
2017-11-05T04:45:45.850Z,11.59
2017-11-05T04:50:41.694Z,11.62
2017-11-05T04:55:37.421Z,11.70
2017-11-05T05:00:33.911Z,11.66
2017-11-05T05:05:29.805Z,11.65
2017-11-05T05:10:27.116Z,11.66
2017-11-05T05:15:22.621Z,11.60
2017-11-05T05:20:19.409Z,11.59
2017-11-05T05:25:15.927Z,11.60
2017-11-05T05:30:11.529Z,11.60
2017-11-05T05:35:07.301Z,11.59
2017-11-05T05:40:04.101Z,11.52
2017-11-05T05:45:01.530Z,11.51
2017-11-05T05:49:58.091Z,11.51
2017-11-05T05:54:53.459Z,11.48
2017-11-05T05:59:49.215Z,11.55
2017-11-05T06:04:45.549Z,11.44
2017-11-05T06:09:41.484Z,11.45
2017-11-05T06:14:37.157Z,11.44
2017-11-05T06:19:34.049Z,11.43
2017-11-05T06:24:29.448Z,11.40
2017-11-05T06:29:25.175Z,11.32
2017-11-05T06:34:21.326Z,11.17
2017-11-05T06:39:17.304Z,11.17
2017-11-05T06:44:13.104Z,11.17
2017-11-05T06:49:08.846Z,11.19
2017-11-05T06:54:04.218Z,11.17
2017-11-05T06:59:00.195Z,11.15
2017-11-05T07:03:56.168Z,11.15
2017-11-05T07:08:52.184Z,11.07
2017-11-05T07:13:47.980Z,11.25
2017-11-05T07:18:44.916Z,11.04
2017-11-05T07:23:41.493Z,11.12
2017-11-05T07:28:36.879Z,11.05
2017-11-05T07:33:32.537Z,11.04
2017-11-05T07:38:28.627Z,11.10
2017-11-05T07:43:24.225Z,10.92
2017-11-05T07:48:21.825Z,10.97
2017-11-05T07:53:18.234Z,10.87
2017-11-05T07:58:14.423Z,10.74
2017-11-05T08:03:09.913Z,10.60
2017-11-05T08:08:06.644Z,10.60
2017-11-05T08:13:03.343Z,10.49
2017-11-05T08:17:59.778Z,10.48
2017-11-05T08:22:55.361Z,10.44
2017-11-05T08:27:52.185Z,10.40
2017-11-05T08:32:47.861Z,10.48
2017-11-05T08:37:44.910Z,10.49
2017-11-05T08:42:41.308Z,10.44
2017-11-05T08:47:39.379Z,10.30
2017-11-05T08:52:35.889Z,10.22
2017-11-05T08:57:31.329Z,10.22
2017-11-05T09:02:28.365Z,10.31
2017-11-05T09:07:23.965Z,10.35
2017-11-05T09:12:19.814Z,10.40
2017-11-05T09:17:16.639Z,10.34
2017-11-05T09:22:11.971Z,10.41
2017-11-05T09:27:08.079Z,10.46
2017-11-05T09:32:04.870Z,10.49
2017-11-05T09:37:00.697Z,10.42
2017-11-05T09:41:57.237Z,10.33
2017-11-05T09:46:53.785Z,10.41
2017-11-05T09:51:49.298Z,10.48
2017-11-05T09:56:45.209Z,10.38
2017-11-05T10:01:40.957Z,10.30
2017-11-05T10:06:36.608Z,10.22
2017-11-05T10:11:32.604Z,10.22
2017-11-05T10:16:28.337Z,10.38
2017-11-05T10:21:24.202Z,10.34
2017-11-05T10:26:19.833Z,10.30
2017-11-05T10:31:15.816Z,10.20
2017-11-05T10:36:11.854Z,10.30
2017-11-05T10:41:08.726Z,10.25
2017-11-05T10:46:04.287Z,10.34
2017-11-05T10:51:01.347Z,10.48
2017-11-05T10:55:56.969Z,10.61
2017-11-05T11:00:52.766Z,10.67
2017-11-05T11:05:49.061Z,10.67
2017-11-05T11:10:45.031Z,10.69
2017-11-05T11:15:41.652Z,10.60
2017-11-05T11:20:38.513Z,10.64
2017-11-05T11:25:34.847Z,10.75
2017-11-05T11:30:30.394Z,10.79
2017-11-05T11:35:26.505Z,10.86
2017-11-05T11:40:22.378Z,10.63
2017-11-05T11:45:18.240Z,10.81
2017-11-05T11:50:13.820Z,10.84
2017-11-05T11:55:09.890Z,10.74
2017-11-05T12:00:06.470Z,11.02
2017-11-05T12:05:02.556Z,10.99
2017-11-05T12:09:58.116Z,11.00
2017-11-05T12:14:55.078Z,11.07
2017-11-05T12:19:51.584Z,11.08
2017-11-05T12:24:47.094Z,11.15
2017-11-05T12:29:42.910Z,11.33
2017-11-05T12:34:38.953Z,11.43
2017-11-05T12:39:34.783Z,11.30
2017-11-05T12:44:30.670Z,11.45
2017-11-05T12:49:26.525Z,11.29
2017-11-05T12:54:23.480Z,11.36
2017-11-05T12:59:19.832Z,11.44
2017-11-05T13:04:16.253Z,11.52
2017-11-05T13:09:11.883Z,11.52
2017-11-05T13:14:08.542Z,11.50
2017-11-05T13:19:05.223Z,11.51
2017-11-05T13:24:01.936Z,11.59
2017-11-05T13:28:58.566Z,11.55
2017-11-05T13:33:55.058Z,11.66
2017-11-05T13:38:52.548Z,11.63
2017-11-05T13:43:48.540Z,11.43
2017-11-05T13:48:43.871Z,11.32
2017-11-05T13:53:39.471Z,11.35
2017-11-05T13:58:35.317Z,11.18
2017-11-05T14:03:31.288Z,11.25
2017-11-05T14:08:28.056Z,11.32
2017-11-05T14:13:23.692Z,11.35
2017-11-05T14:18:20.611Z,11.41
2017-11-05T14:23:16.108Z,11.37
2017-11-05T14:28:11.826Z,11.30
2017-11-05T14:33:08.286Z,11.15
2017-11-05T14:38:04.871Z,11.14
2017-11-05T14:43:01.232Z,11.22
2017-11-05T14:47:57.891Z,11.08
2017-11-05T14:52:53.420Z,11.11
2017-11-05T14:57:50.156Z,10.99
2017-11-05T15:02:45.419Z,11.07
2017-11-05T15:07:42.193Z,10.78
2017-11-05T15:12:38.994Z,10.63
2017-11-05T15:17:34.915Z,10.51
2017-11-05T15:22:31.432Z,10.35
2017-11-05T15:27:26.928Z,10.37
2017-11-05T15:32:22.177Z,10.35
2017-11-05T15:37:18.049Z,10.33
2017-11-05T15:42:13.774Z,10.10
2017-11-05T15:47:09.461Z,10.04
2017-11-05T15:52:07.847Z," 9.94"
2017-11-05T15:57:04.053Z," 9.95"
2017-11-05T16:01:59.869Z," 9.95"
2017-11-05T16:06:55.383Z," 9.97"
2017-11-05T16:11:51.362Z," 9.86"
2017-11-05T16:16:47.192Z," 9.87"
2017-11-05T16:21:43.822Z," 9.79"
2017-11-05T16:26:40.398Z," 9.74"
2017-11-05T16:31:35.346Z," 9.54"
2017-11-05T16:36:32.381Z," 9.44"
2017-11-05T16:41:27.698Z," 9.25"
2017-11-05T16:46:24.455Z," 9.39"
2017-11-05T16:51:20.938Z," 9.19"
2017-11-05T16:56:16.484Z," 8.92"
2017-11-05T17:01:11.948Z," 8.92"
2017-11-05T17:06:07.709Z," 8.79"
2017-11-05T17:11:03.247Z," 8.74"
2017-11-05T17:15:58.873Z," 8.73"
2017-11-05T17:20:55.581Z," 8.61"
2017-11-05T17:25:50.963Z," 8.33"
2017-11-05T17:30:46.623Z," 8.34"
2017-11-05T17:35:42.371Z," 8.27"
2017-11-05T17:40:38.256Z," 8.24"
2017-11-05T17:45:35.102Z," 8.19"
2017-11-05T17:50:30.562Z," 8.19"
2017-11-05T17:55:26.156Z," 8.20"
2017-11-05T18:00:22.928Z," 8.13"
2017-11-05T18:05:19.090Z," 8.19"
2017-11-05T18:10:15.860Z," 8.08"
2017-11-05T18:15:12.204Z," 8.00"
2017-11-05T18:20:07.730Z," 7.98"
2017-11-05T18:25:04.625Z," 7.90"
2017-11-05T18:29:59.773Z," 7.80"
2017-11-05T18:34:56.834Z," 7.58"
2017-11-05T18:39:52.076Z," 7.48"
2017-11-05T18:44:48.212Z," 7.54"
2017-11-05T18:49:43.807Z," 7.43"
2017-11-05T18:54:41.047Z," 7.38"
2017-11-05T18:59:36.698Z," 7.28"
2017-11-05T19:04:32.456Z," 7.23"
2017-11-05T19:09:28.058Z," 7.14"
2017-11-05T19:14:24.008Z," 7.02"
2017-11-05T19:19:20.706Z," 7.14"
2017-11-05T19:24:16.792Z," 7.02"
2017-11-05T19:29:12.602Z," 6.97"
2017-11-05T19:39:08.341Z," 6.70"
2017-11-05T19:44:04.907Z," 6.70"
2017-11-05T19:49:01.228Z," 6.70"
2017-11-05T19:53:57.621Z," 6.72"
2017-11-05T19:58:54.210Z," 6.69"
2017-11-05T20:03:49.489Z," 6.51"
2017-11-05T20:08:45.386Z," 6.59"
2017-11-05T20:13:41.628Z," 6.62"
2017-11-05T20:18:37.412Z," 6.69"
2017-11-05T20:23:33.082Z," 6.52"
2017-11-05T20:28:28.689Z," 6.39"
2017-11-05T20:33:25.320Z," 6.42"
2017-11-05T20:38:20.725Z," 6.36"
2017-11-05T20:43:17.517Z," 6.33"
2017-11-05T20:48:13.539Z," 6.30"
2017-11-05T20:53:09.247Z," 6.28"
2017-11-05T20:58:06.109Z," 6.08"
2017-11-05T21:03:01.584Z," 6.05"
2017-11-05T21:07:57.420Z," 6.19"
2017-11-05T21:12:52.693Z," 6.01"
2017-11-05T21:17:48.145Z," 5.97"
2017-11-05T21:22:44.081Z," 6.11"
2017-11-05T21:27:39.882Z," 6.12"
2017-11-05T21:32:35.671Z," 6.39"
2017-11-05T21:37:31.805Z," 6.42"
2017-11-05T21:42:27.617Z," 6.39"
2017-11-05T21:47:23.656Z," 6.28"
2017-11-05T21:52:20.351Z," 6.28"
2017-11-05T21:57:16.908Z," 6.09"
2017-11-05T22:02:12.363Z," 5.91"
2017-11-05T22:07:08.014Z," 6.05"
2017-11-05T22:12:04.517Z," 5.90"
2017-11-05T22:17:00.229Z," 6.11"
2017-11-05T22:21:57.802Z," 6.08"
2017-11-05T22:26:55.238Z," 5.91"
2017-11-05T22:31:51.573Z," 5.93"
2017-11-05T22:36:46.940Z," 5.84"
2017-11-05T22:41:43.789Z," 5.79"
2017-11-05T22:46:39.103Z," 5.87"
2017-11-05T22:51:35.826Z," 5.83"
2017-11-05T22:56:33.172Z," 5.83"
2017-11-05T23:01:29.354Z," 5.66"
2017-11-05T23:06:25.646Z," 5.50"
2017-11-05T23:11:20.546Z," 5.48"
2017-11-05T23:16:16.227Z," 5.44"
2017-11-05T23:21:12.212Z," 5.53"
2017-11-05T23:26:08.099Z," 5.59"
2017-11-05T23:31:05.478Z," 5.48"
2017-11-05T23:36:00.731Z," 5.41"
2017-11-05T23:40:56.434Z," 5.38"
2017-11-05T23:45:52.267Z," 5.32"
2017-11-05T23:50:48.055Z," 5.28"
2017-11-05T23:55:44.134Z," 5.36"
